Time;durP1;ratioP1;P1;durP2;ratioP2;P2;SDS_P1;SDS_P2;PMS_P1;PMS_P2;Temp;Humidity;BMP_temperature;BMP_pressure;BME280_temperature;BME280_humidity;BME280_pressure;Samples;Min_cycle;Max_cycle;Signal;HPM_P1;HPM_P2
2021/12/24 00:00:53;;;;;;;65.15;30.30;;;;;;;3.36;99.62;100038.19;2072120;28;44060;-63
2021/12/24 00:01:56;;;;;;;65.72;30.42;;;;;;;3.36;99.96;100035.53;2072074;28;44420;-63
2021/12/24 00:02:58;;;;;;;66.55;30.67;;;;;;;3.35;99.64;100044.38;2072177;28;44380;-63
2021/12/24 00:03:59;;;;;;;66.60;29.75;;;;;;;3.38;99.65;100039.06;2071824;28;46497;-63
2021/12/24 00:05:02;;;;;;;66.18;29.35;;;;;;;3.38;99.90;100036.41;2073521;28;25429;-63
2021/12/24 00:06:05;;;;;;;63.08;27.50;;;;;;;3.40;99.63;100045.22;2072198;28;44127;-63
2021/12/24 00:07:07;;;;;;;61.83;28.52;;;;;;;3.39;99.75;100051.41;2072137;28;46576;-63
2021/12/24 00:08:10;;;;;;;66.75;29.20;;;;;;;3.39;99.60;100037.28;2071779;28;20092;-63
2021/12/24 00:09:20;;;;;;;67.43;30.88;;;;;;;3.39;99.53;100039.91;2072206;28;44330;-63
2021/12/24 00:10:22;;;;;;;62.05;27.85;;;;;;;3.39;99.56;100043.47;2072084;28;47143;-63
2021/12/24 00:11:24;;;;;;;61.88;29.20;;;;;;;3.41;99.70;100040.78;2071774;28;48184;-63
2021/12/24 00:12:31;;;;;;;66.88;29.33;;;;;;;3.41;99.54;100036.38;2071715;28;46309;-63
2021/12/24 00:13:40;;;;;;;65.38;29.35;;;;;;;3.41;99.69;100025.81;2072287;28;43898;-63
2021/12/24 00:14:50;;;;;;;71.82;29.00;;;;;;;3.43;99.73;100028.44;2071577;28;44035;-64
2021/12/24 00:16:07;;;;;;;63.22;28.35;;;;;;;3.43;99.61;100029.31;2072412;28;44648;-64
2021/12/24 00:17:15;;;;;;;64.38;29.00;;;;;;;3.44;99.66;100030.19;2072104;28;45195;-63
2021/12/24 00:19:35;;;;;;;63.58;27.13;;;;;;;3.46;99.44;100023.09;2072239;28;43430;-63
2021/12/24 00:35:27;;;;;;;60.25;26.50;;;;;;;3.56;99.79;100034.50;2071380;28;45297;-65
2021/12/24 00:36:29;;;;;;;56.53;25.88;;;;;;;3.57;99.73;100028.31;2064726;28;44957;-64
2021/12/24 00:37:31;;;;;;;55.05;26.33;;;;;;;3.58;99.77;100023.00;2072552;28;20046;-64
2021/12/24 00:38:32;;;;;;;65.72;28.67;;;;;;;3.59;99.92;100029.19;2071451;28;45789;-64
2021/12/24 00:39:40;;;;;;;58.20;26.23;;;;;;;3.60;99.70;100025.63;2071352;28;35323;-65
2021/12/24 00:40:47;;;;;;;63.03;28.30;;;;;;;3.60;99.62;100023.00;2072551;28;20042;-65
2021/12/24 00:41:48;;;;;;;61.85;28.45;;;;;;;3.60;100.00;100013.25;2071649;28;40212;-65
2021/12/24 00:42:54;;;;;;;62.88;28.52;;;;;;;3.61;99.57;100016.81;2071494;28;41432;-65
2021/12/24 00:43:56;;;;;;;64.20;26.92;;;;;;;3.63;99.69;100012.38;2072180;28;45878;-65
2021/12/24 00:44:58;;;;;;;64.40;28.80;;;;;;;3.63;99.93;100021.19;2072214;28;44236;-62
2021/12/24 00:46:01;;;;;;;61.85;29.65;;;;;;;3.63;99.56;100010.59;2071859;28;21974;-65
2021/12/24 00:47:03;;;;;;;64.10;26.35;;;;;;;3.65;99.40;100010.59;2063217;28;43501;-65
2021/12/24 00:48:07;;;;;;;64.45;28.80;;;;;;;3.66;99.61;100016.75;2071406;28;45755;-64
2021/12/24 00:49:08;;;;;;;62.25;28.50;;;;;;;3.66;99.61;100012.34;2072442;28;20915;-64
2021/12/24 00:50:17;;;;;;;62.25;28.08;;;;;;;3.67;99.24;100006.16;2072694;28;20258;-64
2021/12/24 00:51:31;;;;;;;65.35;29.02;;;;;;;3.69;99.89;100009.66;2071138;28;45348;-64
2021/12/24 00:55:13;;;;;;;68.07;28.23;;;;;;;3.70;99.77;100021.16;2062864;28;45323;-65
2021/12/24 00:56:18;;;;;;;67.30;28.58;;;;;;;3.70;99.77;100019.38;2069719;28;20054;-65
2021/12/24 00:57:21;;;;;;;62.03;27.92;;;;;;;3.72;99.58;100025.53;2072150;28;20310;-64
2021/12/24 00:58:23;;;;;;;59.88;27.85;;;;;;;3.72;99.64;100024.66;2071938;28;20089;-65
2021/12/24 00:59:24;;;;;;;68.97;28.65;;;;;;;3.73;99.79;100024.66;2071222;28;44122;-66
2021/12/24 01:00:32;;;;;;;66.88;28.00;;;;;;;3.73;99.73;100027.28;2071164;28;45333;-64
2021/12/24 01:01:34;;;;;;;59.33;26.30;;;;;;;3.74;99.61;100029.03;2063778;28;44363;-64
2021/12/24 01:02:36;;;;;;;59.90;26.85;;;;;;;3.73;100.00;100032.59;2064081;28;20436;-65
2021/12/24 01:03:40;;;;;;;53.40;24.67;;;;;;;3.74;99.96;100022.88;2067100;28;20043;-65
2021/12/24 01:04:42;;;;;;;64.20;28.17;;;;;;;3.73;99.51;100021.09;2072232;28;20815;-65
2021/12/24 01:05:46;;;;;;;64.20;28.42;;;;;;;3.73;99.76;100019.34;2078853;28;36743;-65
2021/12/24 01:06:48;;;;;;;63.15;28.10;;;;;;;3.76;99.69;100023.72;2072121;28;41644;-64
2021/12/24 01:07:50;;;;;;;57.15;26.30;;;;;;;3.76;99.69;100018.44;2071846;28;44024;-66
2021/12/24 01:08:55;;;;;;;62.63;27.50;;;;;;;3.76;99.65;100014.00;2071700;28;21013;-64
2021/12/24 01:09:57;;;;;;;62.90;27.48;;;;;;;3.79;99.26;100013.97;2071410;28;45455;-64
2021/12/24 01:11:04;;;;;;;61.58;26.77;;;;;;;3.79;99.57;100016.63;2071926;28;20088;-64
2021/12/24 01:12:07;;;;;;;68.25;27.33;;;;;;;3.79;99.56;100013.97;2071294;28;39453;-64
2021/12/24 01:13:09;;;;;;;66.05;28.38;;;;;;;3.80;99.82;100013.09;2072167;28;20086;-64
2021/12/24 01:14:10;;;;;;;66.65;29.17;;;;;;;3.80;99.62;100007.81;2072429;28;20038;-65
2021/12/24 01:15:14;;;;;;;61.83;25.58;;;;;;;3.81;99.34;100006.91;2072583;28;31676;-64
2021/12/24 01:16:27;;;;;;;60.17;26.50;;;;;;;3.81;99.91;100006.91;2071176;28;40591;-65
2021/12/24 01:20:12;;;;;;;56.75;26.27;;;;;;;3.83;99.63;100006.88;2072959;28;20077;-64
2021/12/24 01:24:11;;;;;;;62.88;24.98;;;;;;;3.86;99.67;100004.22;2062513;28;41422;-64
2021/12/24 01:28:06;;;;;;;74.00;26.10;;;;;;;3.87;99.82;100003.28;2063122;28;32953;-65
2021/12/24 01:38:15;;;;;;;76.03;28.00;;;;;;;3.95;99.89;99995.28;2065144;28;20054;-64
2021/12/24 01:39:36;;;;;;;63.63;25.80;;;;;;;3.97;99.64;100004.09;2057156;28;20039;-64
2021/12/24 01:43:15;;;;;;;69.63;27.33;;;;;;;4.00;99.74;99998.75;2064250;28;20161;-64
2021/12/24 01:44:21;;;;;;;68.43;27.20;;;;;;;4.00;99.87;99997.00;2064728;28;20043;-65
2021/12/24 01:45:31;;;;;;;73.72;28.80;;;;;;;4.01;99.52;99995.22;2063802;28;20149;-64
2021/12/24 01:46:33;;;;;;;73.40;28.88;;;;;;;4.01;99.70;99996.06;2056715;28;21016;-64
2021/12/24 01:47:36;;;;;;;73.25;27.30;;;;;;;4.01;99.84;99987.25;2048213;28;20032;-65
2021/12/24 01:48:38;;;;;;;72.20;28.50;;;;;;;4.04;100.00;99988.97;2055597;28;28730;-64
2021/12/24 01:49:40;;;;;;;76.15;29.38;;;;;;;4.03;99.62;99988.13;2063733;28;20252;-65
2021/12/24 01:50:47;;;;;;;67.93;28.27;;;;;;;4.04;99.91;99988.97;2055674;28;20043;-65
2021/12/24 01:51:52;;;;;;;64.53;26.48;;;;;;;4.05;99.96;99980.16;2056611;28;20884;-64
2021/12/24 01:53:01;;;;;;;68.95;28.60;;;;;;;4.06;100.00;99981.94;2065087;28;20038;-65
2021/12/24 01:54:10;;;;;;;71.75;27.65;;;;;;;4.05;99.36;99988.97;2063547;28;20983;-65
2021/12/24 01:55:12;;;;;;;66.07;27.65;;;;;;;4.05;100.00;99983.69;2063256;28;38668;-65
2021/12/24 01:56:14;;;;;;;68.93;25.65;;;;;;;4.07;99.66;99978.38;2063285;28;25675;-65
2021/12/24 01:57:16;;;;;;;68.82;27.92;;;;;;;4.04;99.98;99981.03;2055631;28;20039;-65
2021/12/24 01:58:25;;;;;;;64.32;24.98;;;;;;;4.04;99.60;99976.66;2055450;28;20162;-63
2021/12/24 01:59:27;;;;;;;58.17;25.33;;;;;;;4.06;99.59;99977.50;2056308;28;20051;-64
2021/12/24 02:00:37;;;;;;;65.30;27.48;;;;;;;4.09;99.80;99979.22;2060621;28;20955;-63
2021/12/24 02:01:39;;;;;;;62.38;25.90;;;;;;;4.09;99.65;99977.47;2063323;28;25158;-65
2021/12/24 02:02:42;;;;;;;59.85;25.63;;;;;;;4.08;99.97;99970.41;2055057;28;35293;-64
2021/12/24 02:03:44;;;;;;;60.22;25.48;;;;;;;4.10;99.85;99970.38;2065149;28;20887;-64
2021/12/24 02:04:45;;;;;;;51.17;24.20;;;;;;;4.10;99.91;99963.31;2064552;28;41529;-64
2021/12/24 02:05:48;;;;;;;55.70;25.42;;;;;;;4.13;99.94;99973.00;2064088;28;43799;-64
2021/12/24 02:06:51;;;;;;;64.35;25.77;;;;;;;4.13;99.61;99967.72;2073638;28;20722;-64
2021/12/24 02:07:52;;;;;;;59.40;26.35;;;;;;;4.13;99.79;99971.22;2064914;28;20962;-64
2021/12/24 02:08:57;;;;;;;57.00;25.40;;;;;;;4.14;99.71;99966.81;2049256;28;20054;-64
2021/12/24 02:09:59;;;;;;;55.35;23.67;;;;;;;4.16;99.65;99965.91;2057326;28;20043;-64
2021/12/24 02:11:01;;;;;;;49.33;22.15;;;;;;;4.16;99.83;99967.66;2065300;28;20085;-64
2021/12/24 02:12:09;;;;;;;51.53;23.40;;;;;;;4.17;99.84;99967.63;2064811;28;20042;-64
2021/12/24 02:13:13;;;;;;;58.83;24.52;;;;;;;4.18;99.97;99964.09;2065573;28;20209;-64
2021/12/24 02:14:23;;;;;;;51.90;23.95;;;;;;;4.19;99.64;99959.69;2064165;28;20047;-64
2021/12/24 02:16:52;;;;;;;48.05;22.33;;;;;;;4.22;99.61;99964.94;2080849;28;29664;-64
2021/12/24 02:28:38;;;;;;;45.47;21.23;;;;;;;4.28;100.00;99950.72;2071021;28;23153;-64
2021/12/24 02:29:41;;;;;;;46.25;20.67;;;;;;;4.30;100.00;99959.53;2064961;28;20042;-64
2021/12/24 02:30:44;;;;;;;50.00;22.95;;;;;;;4.31;99.65;99951.56;2056923;28;20039;-64
2021/12/24 02:31:46;;;;;;;49.88;23.17;;;;;;;4.32;99.89;99952.44;2072634;28;20875;-64
2021/12/24 02:32:52;;;;;;;48.25;22.35;;;;;;;4.33;99.84;99954.22;2073175;28;20085;-63
2021/12/24 02:33:57;;;;;;;47.45;21.63;;;;;;;4.34;99.75;99946.25;2065459;28;20098;-64
2021/12/24 02:34:59;;;;;;;47.58;20.58;;;;;;;4.35;99.71;99950.63;2073455;28;20109;-64
2021/12/24 02:36:01;;;;;;;43.00;20.17;;;;;;;4.36;99.76;99943.53;2080124;28;42688;-64
2021/12/24 02:37:03;;;;;;;38.83;20.38;;;;;;;4.37;99.81;99943.53;2064900;28;20051;-64
2021/12/24 02:38:08;;;;;;;43.63;20.90;;;;;;;4.38;99.91;99950.59;2065573;28;20895;-64
2021/12/24 02:39:10;;;;;;;44.53;20.33;;;;;;;4.40;100.00;99945.28;2080412;28;44099;-64
2021/12/24 02:40:11;;;;;;;40.97;19.58;;;;;;;4.40;100.00;99947.94;2080754;28;20041;-64
2021/12/24 02:41:13;;;;;;;43.05;19.98;;;;;;;4.41;99.99;99939.06;2073347;28;30348;-64
2021/12/24 02:42:21;;;;;;;42.45;19.92;;;;;;;4.40;100.00;99945.28;2072625;28;20835;-64
2021/12/24 02:43:26;;;;;;;40.90;19.92;;;;;;;4.41;99.89;99941.72;2072408;28;39889;-64
2021/12/24 02:44:28;;;;;;;41.05;20.55;;;;;;;4.43;99.87;99939.91;2072498;28;27108;-64
2021/12/24 02:45:34;;;;;;;45.83;20.55;;;;;;;4.45;99.93;99938.13;2072752;28;27274;-64
2021/12/24 02:49:12;;;;;;;37.88;19.00;;;;;;;4.47;100.00;99935.44;2063637;28;39511;-64
2021/12/24 02:54:01;;;;;;;;;;;;;;;4.50;99.91;99936.28;2072842;28;44265;-64
2021/12/24 02:55:05;;;;;;;35.55;16.65;;;;;;;4.52;99.91;99939.81;2073285;28;36166;-64
2021/12/24 02:56:09;;;;;;;39.78;17.70;;;;;;;4.51;100.00;99927.44;2073449;28;39999;-64
2021/12/24 02:57:15;;;;;;;35.13;18.17;;;;;;;4.52;100.00;99928.31;2064486;28;20109;-64
2021/12/24 02:58:20;;;;;;;36.60;18.40;;;;;;;4.53;99.95;99930.94;2059054;28;20031;-64
2021/12/24 02:59:26;;;;;;;38.58;19.45;;;;;;;4.56;99.88;99920.28;2064642;28;20039;-64
2021/12/24 03:00:29;;;;;;;38.90;19.17;;;;;;;4.55;99.87;99929.13;2065088;28;20161;-64
2021/12/24 03:01:37;;;;;;;36.95;19.42;;;;;;;4.55;99.85;99918.53;2071787;28;43839;-64
2021/12/24 03:02:40;;;;;;;35.67;18.05;;;;;;;4.56;99.87;99925.59;2072458;28;21014;-64
2021/12/24 03:03:47;;;;;;;36.63;17.52;;;;;;;4.57;99.95;99919.38;2071829;28;36173;-64
2021/12/24 03:04:51;;;;;;;35.30;17.88;;;;;;;4.56;99.70;99909.69;2072629;28;20030;-64
2021/12/24 03:05:52;;;;;;;33.50;17.98;;;;;;;4.59;99.71;99914.06;2072165;28;45597;-64
2021/12/24 03:06:54;;;;;;;35.95;18.67;;;;;;;4.58;99.88;99901.72;2073231;28;26779;-64
2021/12/24 03:07:56;;;;;;;36.28;18.48;;;;;;;4.59;99.54;99904.34;2072468;28;32686;-64
2021/12/24 03:08:59;;;;;;;36.22;17.55;;;;;;;4.59;99.72;99907.00;2073002;28;20042;-64
2021/12/24 03:10:01;;;;;;;36.78;18.55;;;;;;;4.60;99.81;99905.22;2072716;28;20072;-64
2021/12/24 03:11:03;;;;;;;37.30;18.17;;;;;;;4.61;99.75;99906.09;2072519;28;45132;-64
2021/12/24 03:12:05;;;;;;;29.58;16.92;;;;;;;4.63;99.62;99904.28;2072138;28;39169;-64
2021/12/24 03:13:07;;;;;;;29.58;16.65;;;;;;;4.63;99.92;99905.19;2064418;28;31100;-64
2021/12/24 03:14:10;;;;;;;28.45;15.73;;;;;;;4.64;99.72;99895.44;2072158;28;43270;-64
2021/12/24 03:15:15;;;;;;;28.23;14.85;;;;;;;4.65;99.81;99905.13;2063664;28;20911;-64
2021/12/24 03:16:19;;;;;;;32.20;16.42;;;;;;;4.66;99.87;99906.91;2064843;28;35295;-64
2021/12/24 03:17:24;;;;;;;30.92;16.15;;;;;;;4.67;99.94;99911.31;2073493;28;20050;-64
2021/12/24 03:18:31;;;;;;;31.08;15.38;;;;;;;4.67;99.75;99912.19;2073012;28;20051;-63
2021/12/24 03:19:33;;;;;;;30.65;15.18;;;;;;;4.66;99.97;99905.13;2073090;28;20038;-64
2021/12/24 03:20:38;;;;;;;29.55;15.05;;;;;;;4.67;100.00;99908.66;2071800;28;20923;-64
2021/12/24 03:21:58;;;;;;;29.23;14.52;;;;;;;4.68;99.57;99907.75;2064668;28;20089;-64
2021/12/24 03:23:22;;;;;;;26.77;15.00;;;;;;;4.67;99.85;99906.88;2064075;28;44624;-64
2021/12/24 03:25:25;;;;;;;28.50;14.60;;;;;;;4.70;99.93;99911.25;2071831;28;47761;-64
2021/12/24 03:26:31;;;;;;;26.67;15.00;;;;;;;4.71;99.99;99902.41;2056529;28;20179;-63
2021/12/24 03:27:32;;;;;;;27.67;15.20;;;;;;;4.72;100.00;99905.03;2056881;28;24323;-64
2021/12/24 03:28:35;;;;;;;30.13;16.02;;;;;;;4.74;99.98;99899.72;2056844;28;20048;-63
2021/12/24 03:29:37;;;;;;;25.95;14.38;;;;;;;4.75;99.83;99896.16;2055447;28;35422;-64
2021/12/24 03:30:38;;;;;;;27.05;15.02;;;;;;;4.76;99.91;99895.25;2062979;28;40322;-64
2021/12/24 03:31:41;;;;;;;23.92;14.20;;;;;;;4.76;99.62;99903.22;2064572;28;20047;-65
2021/12/24 03:32:42;;;;;;;29.25;15.35;;;;;;;4.77;100.00;99894.34;2063522;28;44040;-65
2021/12/24 03:33:44;;;;;;;28.40;14.60;;;;;;;4.77;99.86;99891.69;2064040;28;33107;-64
2021/12/24 03:34:46;;;;;;;25.02;13.98;;;;;;;4.77;99.59;99894.34;2064391;28;20101;-64
2021/12/24 03:35:48;;;;;;;28.00;14.55;;;;;;;4.77;99.76;99887.28;2048366;28;20067;-64
2021/12/24 03:36:50;;;;;;;26.85;15.13;;;;;;;4.79;99.85;99892.53;2056881;28;20055;-62
2021/12/24 03:37:59;;;;;;;26.33;14.15;;;;;;;4.80;99.89;99894.28;2065253;28;20836;-64
2021/12/24 03:39:01;;;;;;;25.52;14.07;;;;;;;4.82;99.99;99888.97;2064628;28;20154;-64
2021/12/24 03:40:04;;;;;;;26.25;14.63;;;;;;;4.81;99.84;99888.09;2056711;28;20047;-64
2021/12/24 03:41:06;;;;;;;24.88;14.25;;;;;;;4.82;99.65;99884.53;2064231;28;20135;-63
2021/12/24 03:42:09;;;;;;;25.33;14.38;;;;;;;4.82;99.89;99884.53;2064829;28;20889;-64
2021/12/24 03:43:11;;;;;;;26.23;13.40;;;;;;;4.83;99.88;99886.31;2072537;28;20042;-64
2021/12/24 03:44:18;;;;;;;21.45;11.77;;;;;;;4.83;99.82;99880.09;2063493;28;40563;-64
2021/12/24 03:45:35;;;;;;;22.17;13.23;;;;;;;4.84;99.79;99872.13;2063516;28;40550;-64
2021/12/24 03:46:56;;;;;;;23.75;13.05;;;;;;;4.85;99.94;99873.03;2064145;28;20999;-65
2021/12/24 03:48:02;;;;;;;24.38;13.10;;;;;;;4.85;99.72;99878.31;2066945;28;20085;-64
2021/12/24 03:49:17;;;;;;;20.50;11.50;;;;;;;4.86;99.86;99875.63;2071822;28;20133;-64
2021/12/24 03:50:19;;;;;;;20.00;12.15;;;;;;;4.87;99.90;99888.00;2072259;28;20170;-64
2021/12/24 03:55:00;;;;;;;21.52;12.13;;;;;;;4.90;99.90;99880.00;2076566;28;46136;-64
2021/12/24 03:56:10;;;;;;;23.02;12.55;;;;;;;4.89;99.67;99874.72;2071894;28;20158;-64
2021/12/24 03:57:12;;;;;;;22.00;12.02;;;;;;;4.89;99.77;99875.56;2071982;28;20042;-65
2021/12/24 03:58:32;;;;;;;22.15;12.20;;;;;;;4.90;99.89;99877.34;2071863;28;20135;-64
2021/12/24 03:59:55;;;;;;;19.00;10.77;;;;;;;4.90;99.73;99873.78;2072915;28;20042;-64
2021/12/24 04:01:15;;;;;;;20.77;12.88;;;;;;;4.93;99.88;99876.41;2072575;28;20884;-64
2021/12/24 04:02:53;;;;;;;21.50;12.10;;;;;;;4.93;99.93;99874.59;2047069;28;20131;-64
2021/12/24 04:04:02;;;;;;;23.90;12.98;;;;;;;4.94;99.90;99879.03;2052702;28;20035;-64
2021/12/24 04:05:24;;;;;;;24.08;12.45;;;;;;;4.96;100.00;99877.22;2044544;28;20051;-64
2021/12/24 04:06:52;;;;;;;23.33;14.10;;;;;;;4.98;100.00;99869.25;2056490;28;20055;-64
2021/12/24 04:08:14;;;;;;;22.75;13.45;;;;;;;5.01;99.91;99869.19;2073345;28;20954;-65
2021/12/24 04:09:37;;;;;;;24.00;13.60;;;;;;;5.00;100.00;99882.47;2072376;28;20053;-64
2021/12/24 04:11:03;;;;;;;24.38;13.98;;;;;;;5.01;99.93;99876.25;2072410;28;20876;-64
2021/12/24 04:12:07;;;;;;;27.33;13.85;;;;;;;5.02;99.89;99880.66;2072931;28;20128;-64
2021/12/24 04:13:10;;;;;;;25.02;14.02;;;;;;;5.02;99.88;99873.59;2072469;28;20149;-64
2021/12/24 04:14:12;;;;;;;24.38;13.48;;;;;;;5.03;100.00;99871.81;2072543;28;20041;-64
2021/12/24 04:15:17;;;;;;;25.98;13.23;;;;;;;5.03;99.98;99877.13;2072426;28;36941;-64
2021/12/24 04:16:19;;;;;;;22.90;13.52;;;;;;;5.03;99.87;99878.00;2072257;28;20046;-64
2021/12/24 04:17:38;;;;;;;22.33;12.60;;;;;;;5.04;99.83;99877.06;2065746;28;20157;-64
2021/12/24 04:25:09;;;;;;;22.30;12.60;;;;;;;5.08;99.92;99873.50;2072392;28;28506;-65
2021/12/24 04:26:11;;;;;;;26.52;14.10;;;;;;;5.09;99.74;99871.72;2071439;28;21072;-64
2021/12/24 04:27:13;;;;;;;26.02;13.30;;;;;;;5.08;100.00;99854.91;2071541;28;20883;-64
2021/12/24 04:28:15;;;;;;;24.45;13.30;;;;;;;5.09;99.91;99850.47;2064213;28;20043;-64
2021/12/24 04:29:18;;;;;;;23.27;12.80;;;;;;;5.10;100.00;99852.25;2064443;28;20039;-64
2021/12/24 04:30:26;;;;;;;23.30;12.98;;;;;;;5.10;99.72;99850.47;2064335;28;20089;-64
2021/12/24 04:31:40;;;;;;;21.48;12.45;;;;;;;5.11;99.78;99851.31;2072291;28;20038;-64
2021/12/24 04:33:10;;;;;;;20.45;11.75;;;;;;;5.11;99.77;99865.44;2072975;28;20049;-64
2021/12/24 04:34:13;;;;;;;22.38;12.73;;;;;;;5.13;99.96;99863.69;2073040;28;20153;-64
2021/12/24 04:35:37;;;;;;;21.58;12.68;;;;;;;5.15;99.83;99866.28;2072130;28;20197;-64
2021/12/24 04:37:55;;;;;;;20.15;12.15;;;;;;;5.15;100.00;99874.22;2066945;28;20042;-64
2021/12/24 04:38:11;;;;;;;21.30;11.80;;;;;;;5.15;100.00;99866.28;2062136;28;20172;-64
2021/12/24 04:51:23;;;;;;;20.50;11.55;;;;;;;5.21;100.00;99868.84;2072209;28;20109;-64
2021/12/24 04:53:20;;;;;;;20.58;12.18;;;;;;;5.20;99.93;99877.69;2065842;28;20173;-64
2021/12/24 05:03:31;;;;;;;17.75;11.63;;;;;;;5.24;99.80;99876.75;2063051;28;20040;-64
2021/12/24 05:04:36;;;;;;;18.75;11.35;;;;;;;5.27;100.00;99873.16;2071301;28;45117;-64
2021/12/24 05:05:45;;;;;;;19.80;11.68;;;;;;;5.25;99.80;99880.28;2072235;28;20050;-64
2021/12/24 05:06:52;;;;;;;19.60;11.90;;;;;;;5.25;100.00;99878.47;2065209;28;20046;-64
2021/12/24 05:09:05;;;;;;;19.33;12.23;;;;;;;5.28;99.91;99881.09;2072111;28;20039;-64
2021/12/24 05:10:07;;;;;;;18.23;11.25;;;;;;;5.27;100.00;99876.66;2072772;28;20042;-64
2021/12/24 05:11:12;;;;;;;20.67;11.82;;;;;;;5.28;99.94;99877.56;2071339;28;20042;-64
2021/12/24 05:12:14;;;;;;;18.95;11.38;;;;;;;5.28;99.83;99869.59;2064173;28;20820;-64
2021/12/24 05:13:19;;;;;;;19.85;11.27;;;;;;;5.27;99.78;99871.34;2063877;28;20054;-64
2021/12/24 05:14:39;;;;;;;18.50;11.82;;;;;;;5.30;99.70;99881.06;2072447;28;20046;-64
2021/12/24 05:16:06;;;;;;;18.33;11.10;;;;;;;5.31;100.00;99874.84;2071513;28;20050;-64
2021/12/24 05:17:52;;;;;;;20.45;11.43;;;;;;;5.31;99.83;99878.38;2069307;28;20052;-64
2021/12/24 05:21:42;;;;;;;16.50;9.82;;;;;;;5.33;99.91;99873.91;2075023;28;20054;-64
2021/12/24 05:22:36;;;;;;;18.63;10.77;;;;;;;5.34;99.93;99877.44;2073743;28;20143;-64
2021/12/24 05:23:44;;;;;;;19.95;11.15;;;;;;;5.34;99.82;99873.00;2071833;28;20051;-64
2021/12/24 05:24:46;;;;;;;19.90;10.68;;;;;;;5.34;99.98;99866.81;2063246;28;28930;-64
2021/12/24 05:25:50;;;;;;;18.98;10.48;;;;;;;5.34;99.89;99867.69;2071966;28;20046;-64
2021/12/24 05:27:00;;;;;;;17.92;11.00;;;;;;;5.36;99.83;99870.31;2070932;28;44729;-64
2021/12/24 05:28:01;;;;;;;16.00;10.18;;;;;;;5.36;100.00;99870.31;2071893;28;43132;-64
2021/12/24 05:29:05;;;;;;;18.88;11.07;;;;;;;5.38;99.88;99867.63;2071965;28;20851;-63
2021/12/24 05:30:07;;;;;;;18.52;11.15;;;;;;;5.39;100.00;99861.44;2063748;28;32690;-64
2021/12/24 05:31:12;;;;;;;19.00;11.25;;;;;;;5.40;99.78;99874.69;2072103;28;20037;-64
2021/12/24 05:32:14;;;;;;;19.25;11.10;;;;;;;5.41;100.00;99862.28;2063209;28;28860;-64
2021/12/24 05:33:16;;;;;;;16.92;10.27;;;;;;;5.40;99.94;99874.69;2055567;28;36631;-64
2021/12/24 05:34:19;;;;;;;20.75;11.43;;;;;;;5.41;100.00;99867.59;2071992;28;20253;-64
2021/12/24 05:35:21;;;;;;;17.85;10.48;;;;;;;5.42;100.00;99864.00;2079595;28;40691;-64
2021/12/24 05:36:23;;;;;;;15.65;9.60;;;;;;;5.42;100.00;99871.97;2069657;28;45554;-64
2021/12/24 05:37:25;;;;;;;17.27;10.23;;;;;;;5.44;100.00;99870.19;2071784;28;22196;-64
2021/12/24 05:38:26;;;;;;;16.48;10.02;;;;;;;5.43;100.00;99871.94;2063213;28;42194;-63
2021/12/24 05:39:29;;;;;;;17.90;11.38;;;;;;;5.45;100.00;99863.97;2071919;28;20124;-64
2021/12/24 05:40:32;;;;;;;16.77;10.15;;;;;;;5.46;99.90;99866.59;2063483;28;20047;-64
2021/12/24 05:41:37;;;;;;;17.77;10.45;;;;;;;5.47;99.50;99867.47;2063742;28;21032;-64
2021/12/24 05:42:42;;;;;;;15.85;9.60;;;;;;;5.48;100.00;99870.09;2056102;28;20043;-64
2021/12/24 05:43:46;;;;;;;17.35;10.00;;;;;;;5.47;99.92;99867.47;2056344;28;20943;-64
2021/12/24 05:44:48;;;;;;;17.65;10.18;;;;;;;5.49;100.00;99863.00;2064069;28;20062;-64
2021/12/24 05:46:10;;;;;;;18.27;10.98;;;;;;;5.50;100.00;99870.06;2056747;28;20905;-63
2021/12/24 05:47:35;;;;;;;14.30;9.18;;;;;;;5.50;100.00;99862.97;2064234;28;20039;-64
2021/12/24 05:48:40;;;;;;;15.45;8.77;;;;;;;5.52;99.96;99863.81;2063586;28;20039;-64
2021/12/24 05:49:44;;;;;;;17.98;9.88;;;;;;;5.53;99.97;99870.00;2064379;28;20093;-64
2021/12/24 05:51:08;;;;;;;19.50;9.93;;;;;;;5.54;99.96;99861.13;2063627;28;20173;-64
2021/12/24 05:52:25;;;;;;;14.23;9.10;;;;;;;5.56;99.96;99861.97;2063808;28;20805;-64
2021/12/24 05:53:35;;;;;;;15.85;9.65;;;;;;;5.56;100.00;99856.66;2071879;28;20108;-64
2021/12/24 05:54:44;;;;;;;15.30;9.23;;;;;;;5.59;100.00;99853.09;2063640;28;20129;-64
2021/12/24 05:55:51;;;;;;;16.27;9.15;;;;;;;5.58;100.00;99852.22;2056368;28;20928;-64
2021/12/24 05:56:55;;;;;;;14.80;9.77;;;;;;;5.60;100.00;99854.81;2055776;28;20442;-64
2021/12/24 05:57:57;;;;;;;14.98;9.82;;;;;;;5.59;99.90;99848.63;2063453;28;28298;-64
2021/12/24 05:58:59;;;;;;;14.25;8.52;;;;;;;5.60;99.95;99853.06;2071914;28;20172;-64
2021/12/24 06:00:05;;;;;;;15.38;8.95;;;;;;;5.60;99.94;99842.44;2072000;28;20981;-64
2021/12/24 06:01:13;;;;;;;14.60;9.38;;;;;;;5.63;100.00;99849.44;2064131;28;20190;-64
2021/12/24 06:02:21;;;;;;;16.10;9.55;;;;;;;5.65;100.00;99847.63;2063932;28;20070;-64
2021/12/24 06:03:23;;;;;;;13.52;8.40;;;;;;;5.66;100.00;99846.75;2064198;28;20055;-64
2021/12/24 06:04:25;;;;;;;13.43;8.35;;;;;;;5.66;99.72;99846.75;2062911;28;42209;-64
2021/12/24 06:05:27;;;;;;;15.52;9.45;;;;;;;5.69;99.73;99842.25;2066975;28;44258;-64
2021/12/24 06:06:29;;;;;;;15.13;9.23;;;;;;;5.69;100.00;99839.59;2063486;28;43487;-64
2021/12/24 06:07:33;;;;;;;15.65;9.48;;;;;;;5.71;100.00;99844.88;2070869;28;44772;-64
2021/12/24 06:08:35;;;;;;;14.40;9.23;;;;;;;5.71;100.00;99840.41;2070702;28;28513;-65
2021/12/24 06:09:39;;;;;;;16.58;9.43;;;;;;;5.71;100.00;99839.56;2062972;28;42688;-64
2021/12/24 06:10:42;;;;;;;14.38;8.52;;;;;;;5.71;99.96;99845.72;2063360;28;45542;-64
2021/12/24 06:11:43;;;;;;;13.95;8.70;;;;;;;5.72;100.00;99841.28;2063697;28;45972;-65
2021/12/24 06:12:45;;;;;;;15.00;8.40;;;;;;;5.73;99.79;99849.22;2063264;28;43943;-64
2021/12/24 06:13:51;;;;;;;13.65;8.68;;;;;;;5.74;99.86;99840.38;2063060;28;45146;-64
2021/12/24 06:14:54;;;;;;;15.35;8.88;;;;;;;5.74;100.00;99835.06;2064043;28;42360;-64
2021/12/24 06:15:55;;;;;;;14.23;9.25;;;;;;;5.76;100.00;99837.69;2063414;28;43914;-64
2021/12/24 06:17:02;;;;;;;17.33;9.60;;;;;;;5.78;100.00;99842.94;2063583;28;32392;-64
2021/12/24 06:18:13;;;;;;;17.42;9.50;;;;;;;5.80;99.94;99838.50;2063313;28;43443;-64
2021/12/24 06:19:19;;;;;;;13.85;8.27;;;;;;;5.81;99.65;99846.41;2071122;28;41036;-64
2021/12/24 06:20:23;;;;;;;14.50;8.23;;;;;;;5.81;100.00;99845.53;2069448;28;44757;-64
2021/12/24 06:21:24;;;;;;;11.05;7.15;;;;;;;5.81;99.89;99849.06;2063329;28;44117;-64
2021/12/24 06:22:26;;;;;;;13.82;8.45;;;;;;;5.82;100.00;99852.63;2063029;28;45155;-65
2021/12/24 06:23:28;;;;;;;11.85;7.68;;;;;;;5.81;100.00;99846.41;2063477;28;42431;-64
2021/12/24 06:24:30;;;;;;;14.55;9.20;;;;;;;5.82;99.90;99850.81;2062344;28;44300;-65
2021/12/24 06:25:34;;;;;;;16.38;9.55;;;;;;;5.83;100.00;99854.34;2062561;28;44485;-64
2021/12/24 06:26:38;;;;;;;14.80;9.23;;;;;;;5.83;100.00;99854.34;2063313;28;45295;-63
2021/12/24 06:27:40;;;;;;;13.98;8.93;;;;;;;5.84;100.00;99856.97;2063465;28;44022;-64
2021/12/24 06:28:42;;;;;;;15.75;9.07;;;;;;;5.83;99.88;99855.25;2063259;28;41248;-64
2021/12/24 06:29:43;;;;;;;13.40;8.10;;;;;;;5.83;100.00;99863.22;2063461;28;44347;-65
2021/12/24 06:30:46;;;;;;;11.55;7.88;;;;;;;5.85;100.00;99863.16;2063302;28;44704;-64
2021/12/24 06:31:48;;;;;;;14.82;9.57;;;;;;;5.83;100.00;99859.66;2063097;28;45294;-64
2021/12/24 06:32:52;;;;;;;14.98;8.82;;;;;;;5.82;100.00;99855.28;2063701;28;20190;-65
2021/12/24 06:33:54;;;;;;;12.07;7.50;;;;;;;5.83;99.63;99862.31;2063317;28;43372;-65
2021/12/24 06:34:55;;;;;;;11.38;8.60;;;;;;;5.84;100.00;99861.41;2063837;28;45456;-64
2021/12/24 06:35:58;;;;;;;11.73;8.27;;;;;;;5.82;99.88;99864.09;2071722;28;30647;-64
2021/12/24 06:37:00;;;;;;;10.02;6.88;;;;;;;5.81;99.81;99856.16;2071602;28;46895;-64
2021/12/24 06:38:02;;;;;;;10.93;7.28;;;;;;;5.83;100.00;99860.56;2070914;28;45358;-65
2021/12/24 06:39:05;;;;;;;9.75;6.90;;;;;;;5.83;99.80;99864.97;2071644;28;44885;-64
2021/12/24 06:40:08;;;;;;;9.35;7.13;;;;;;;5.83;99.99;99862.31;2071365;28;44094;-64